sensor_id;sensor_type;location;lat;lon;timestamp;P1;durP1;ratioP1;P2;durP2;ratioP2
82000;SDS011;71510;50.558;7.258;2023-09-30T00:01:48;0.00;;;0.00;;
82000;SDS011;71510;50.558;7.258;2023-09-30T00:04:17;0.37;;;0.33;;
82000;SDS011;71510;50.558;7.258;2023-09-30T00:06:45;0.00;;;0.00;;
82000;SDS011;71510;50.558;7.258;2023-09-30T00:09:12;0.00;;;0.00;;
82000;SDS011;71510;50.558;7.258;2023-09-30T00:11:40;0.30;;;0.30;;
82000;SDS011;71510;50.558;7.258;2023-09-30T00:14:07;31.50;;;1.25;;
82000;SDS011;71510;50.558;7.258;2023-09-30T00:16:35;0.00;;;0.00;;
82000;SDS011;71510;50.558;7.258;2023-09-30T00:19:02;1.30;;;0.75;;
82000;SDS011;71510;50.558;7.258;2023-09-30T00:21:30;0.00;;;0.00;;
82000;SDS011;71510;50.558;7.258;2023-09-30T00:23:57;0.00;;;0.00;;
82000;SDS011;71510;50.558;7.258;2023-09-30T00:26:24;0.15;;;0.15;;
82000;SDS011;71510;50.558;7.258;2023-09-30T00:28:52;0.00;;;0.00;;
82000;SDS011;71510;50.558;7.258;2023-09-30T00:31:19;0.00;;;0.00;;
82000;SDS011;71510;50.558;7.258;2023-09-30T00:33:46;0.00;;;0.00;;
82000;SDS011;71510;50.558;7.258;2023-09-30T00:36:14;0.00;;;0.00;;
82000;SDS011;71510;50.558;7.258;2023-09-30T00:38:41;0.17;;;0.17;;
82000;SDS011;71510;50.558;7.258;2023-09-30T00:41:09;0.00;;;0.00;;
82000;SDS011;71510;50.558;7.258;2023-09-30T00:43:36;0.10;;;0.10;;
82000;SDS011;71510;50.558;7.258;2023-09-30T00:46:09;0.10;;;0.10;;
82000;SDS011;71510;50.558;7.258;2023-09-30T00:48:35;0.13;;;0.13;;
82000;SDS011;71510;50.558;7.258;2023-09-30T00:51:02;0.00;;;0.00;;
82000;SDS011;71510;50.558;7.258;2023-09-30T00:53:30;1.65;;;1.55;;
82000;SDS011;71510;50.558;7.258;2023-09-30T00:55:58;0.72;;;0.72;;
82000;SDS011;71510;50.558;7.258;2023-09-30T00:58:26;1.45;;;1.35;;
82000;SDS011;71510;50.558;7.258;2023-09-30T01:00:55;0.00;;;0.00;;
82000;SDS011;71510;50.558;7.258;2023-09-30T01:03:23;0.00;;;0.00;;
82000;SDS011;71510;50.558;7.258;2023-09-30T01:05:51;0.30;;;0.30;;
82000;SDS011;71510;50.558;7.258;2023-09-30T01:08:18;0.10;;;0.10;;
82000;SDS011;71510;50.558;7.258;2023-09-30T01:10:46;0.00;;;0.00;;
82000;SDS011;71510;50.558;7.258;2023-09-30T01:13:14;0.00;;;0.00;;
82000;SDS011;71510;50.558;7.258;2023-09-30T01:15:41;0.00;;;0.00;;
82000;SDS011;71510;50.558;7.258;2023-09-30T01:18:09;0.90;;;0.85;;
82000;SDS011;71510;50.558;7.258;2023-09-30T01:20:36;0.00;;;0.00;;
82000;SDS011;71510;50.558;7.258;2023-09-30T01:23:03;0.55;;;0.55;;
82000;SDS011;71510;50.558;7.258;2023-09-30T01:25:31;1.10;;;1.07;;
82000;SDS011;71510;50.558;7.258;2023-09-30T01:28:00;0.00;;;0.00;;
82000;SDS011;71510;50.558;7.258;2023-09-30T01:30:29;0.70;;;0.70;;
82000;SDS011;71510;50.558;7.258;2023-09-30T01:32:58;0.00;;;0.00;;
82000;SDS011;71510;50.558;7.258;2023-09-30T01:35:25;0.00;;;0.00;;
82000;SDS011;71510;50.558;7.258;2023-09-30T01:37:53;0.00;;;0.00;;
82000;SDS011;71510;50.558;7.258;2023-09-30T01:40:21;0.00;;;0.00;;
82000;SDS011;71510;50.558;7.258;2023-09-30T01:42:48;0.00;;;0.00;;
82000;SDS011;71510;50.558;7.258;2023-09-30T01:45:15;0.10;;;0.10;;
82000;SDS011;71510;50.558;7.258;2023-09-30T01:47:43;7.80;;;1.90;;
82000;SDS011;71510;50.558;7.258;2023-09-30T01:50:10;0.10;;;0.10;;
82000;SDS011;71510;50.558;7.258;2023-09-30T01:52:37;0.17;;;0.17;;
82000;SDS011;71510;50.558;7.258;2023-09-30T01:55:05;0.00;;;0.00;;
82000;SDS011;71510;50.558;7.258;2023-09-30T01:57:32;1.75;;;1.65;;
82000;SDS011;71510;50.558;7.258;2023-09-30T02:00:00;0.00;;;0.00;;
82000;SDS011;71510;50.558;7.258;2023-09-30T02:02:27;0.00;;;0.00;;
82000;SDS011;71510;50.558;7.258;2023-09-30T02:04:54;0.10;;;0.10;;
82000;SDS011;71510;50.558;7.258;2023-09-30T02:07:22;2.08;;;1.85;;
82000;SDS011;71510;50.558;7.258;2023-09-30T02:09:49;0.42;;;0.42;;
82000;SDS011;71510;50.558;7.258;2023-09-30T02:12:16;1.32;;;1.22;;
82000;SDS011;71510;50.558;7.258;2023-09-30T02:14:44;0.08;;;0.08;;
82000;SDS011;71510;50.558;7.258;2023-09-30T02:17:12;0.00;;;0.00;;
82000;SDS011;71510;50.558;7.258;2023-09-30T02:19:40;0.85;;;0.85;;
82000;SDS011;71510;50.558;7.258;2023-09-30T02:22:07;0.00;;;0.00;;
82000;SDS011;71510;50.558;7.258;2023-09-30T02:24:34;0.03;;;0.03;;
82000;SDS011;71510;50.558;7.258;2023-09-30T02:27:02;0.00;;;0.00;;
82000;SDS011;71510;50.558;7.258;2023-09-30T02:29:29;0.35;;;0.35;;
82000;SDS011;71510;50.558;7.258;2023-09-30T02:31:57;0.23;;;0.23;;
82000;SDS011;71510;50.558;7.258;2023-09-30T02:34:25;0.00;;;0.00;;
82000;SDS011;71510;50.558;7.258;2023-09-30T02:36:52;0.00;;;0.00;;
82000;SDS011;71510;50.558;7.258;2023-09-30T02:39:22;0.23;;;0.23;;
82000;SDS011;71510;50.558;7.258;2023-09-30T02:41:49;0.00;;;0.00;;
82000;SDS011;71510;50.558;7.258;2023-09-30T02:44:16;2.42;;;0.95;;
82000;SDS011;71510;50.558;7.258;2023-09-30T02:46:44;0.20;;;0.20;;
82000;SDS011;71510;50.558;7.258;2023-09-30T02:49:11;0.10;;;0.10;;
82000;SDS011;71510;50.558;7.258;2023-09-30T02:51:38;0.00;;;0.00;;
82000;SDS011;71510;50.558;7.258;2023-09-30T02:54:06;0.00;;;0.00;;
82000;SDS011;71510;50.558;7.258;2023-09-30T02:56:33;0.08;;;0.08;;
82000;SDS011;71510;50.558;7.258;2023-09-30T02:59:01;1.02;;;0.95;;
82000;SDS011;71510;50.558;7.258;2023-09-30T03:01:28;0.10;;;0.10;;
82000;SDS011;71510;50.558;7.258;2023-09-30T03:03:56;0.42;;;0.20;;
82000;SDS011;71510;50.558;7.258;2023-09-30T03:06:23;0.00;;;0.00;;
82000;SDS011;71510;50.558;7.258;2023-09-30T03:08:51;0.00;;;0.00;;
82000;SDS011;71510;50.558;7.258;2023-09-30T03:11:19;0.00;;;0.00;;
82000;SDS011;71510;50.558;7.258;2023-09-30T03:13:47;0.00;;;0.00;;
82000;SDS011;71510;50.558;7.258;2023-09-30T03:16:16;0.00;;;0.00;;
82000;SDS011;71510;50.558;7.258;2023-09-30T03:18:43;0.00;;;0.00;;
82000;SDS011;71510;50.558;7.258;2023-09-30T03:21:14;0.40;;;0.40;;
82000;SDS011;71510;50.558;7.258;2023-09-30T03:23:42;0.00;;;0.00;;
82000;SDS011;71510;50.558;7.258;2023-09-30T03:26:09;0.08;;;0.08;;
82000;SDS011;71510;50.558;7.258;2023-09-30T03:28:37;0.00;;;0.00;;
82000;SDS011;71510;50.558;7.258;2023-09-30T03:31:05;0.00;;;0.00;;
82000;SDS011;71510;50.558;7.258;2023-09-30T03:33:32;0.00;;;0.00;;
82000;SDS011;71510;50.558;7.258;2023-09-30T03:35:59;0.00;;;0.00;;
82000;SDS011;71510;50.558;7.258;2023-09-30T03:38:27;0.00;;;0.00;;
82000;SDS011;71510;50.558;7.258;2023-09-30T03:40:55;0.00;;;0.00;;
82000;SDS011;71510;50.558;7.258;2023-09-30T03:43:24;0.13;;;0.13;;
82000;SDS011;71510;50.558;7.258;2023-09-30T03:45:52;0.00;;;0.00;;
82000;SDS011;71510;50.558;7.258;2023-09-30T03:48:20;0.00;;;0.00;;
82000;SDS011;71510;50.558;7.258;2023-09-30T03:50:47;0.00;;;0.00;;
82000;SDS011;71510;50.558;7.258;2023-09-30T03:53:15;4.28;;;3.20;;
82000;SDS011;71510;50.558;7.258;2023-09-30T03:55:42;0.50;;;0.15;;
82000;SDS011;71510;50.558;7.258;2023-09-30T03:58:09;0.00;;;0.00;;
82000;SDS011;71510;50.558;7.258;2023-09-30T04:00:38;0.10;;;0.10;;
82000;SDS011;71510;50.558;7.258;2023-09-30T04:03:06;0.00;;;0.00;;
82000;SDS011;71510;50.558;7.258;2023-09-30T04:05:33;0.00;;;0.00;;
82000;SDS011;71510;50.558;7.258;2023-09-30T04:08:02;0.10;;;0.10;;
82000;SDS011;71510;50.558;7.258;2023-09-30T04:10:31;0.80;;;0.80;;
82000;SDS011;71510;50.558;7.258;2023-09-30T04:12:58;0.05;;;0.05;;
82000;SDS011;71510;50.558;7.258;2023-09-30T04:15:26;0.10;;;0.10;;
82000;SDS011;71510;50.558;7.258;2023-09-30T04:17:53;0.30;;;0.30;;
82000;SDS011;71510;50.558;7.258;2023-09-30T04:20:20;0.10;;;0.10;;
82000;SDS011;71510;50.558;7.258;2023-09-30T04:22:49;0.00;;;0.00;;
82000;SDS011;71510;50.558;7.258;2023-09-30T04:25:17;0.00;;;0.00;;
82000;SDS011;71510;50.558;7.258;2023-09-30T04:27:45;0.35;;;0.35;;
82000;SDS011;71510;50.558;7.258;2023-09-30T04:30:13;0.17;;;0.17;;
82000;SDS011;71510;50.558;7.258;2023-09-30T04:32:41;0.00;;;0.00;;
82000;SDS011;71510;50.558;7.258;2023-09-30T04:35:09;0.45;;;0.45;;
82000;SDS011;71510;50.558;7.258;2023-09-30T04:37:36;0.00;;;0.00;;
82000;SDS011;71510;50.558;7.258;2023-09-30T04:40:04;0.25;;;0.25;;
82000;SDS011;71510;50.558;7.258;2023-09-30T04:42:36;0.00;;;0.00;;
82000;SDS011;71510;50.558;7.258;2023-09-30T04:45:04;0.00;;;0.00;;
82000;SDS011;71510;50.558;7.258;2023-09-30T04:47:33;0.00;;;0.00;;
82000;SDS011;71510;50.558;7.258;2023-09-30T04:50:00;0.05;;;0.05;;
82000;SDS011;71510;50.558;7.258;2023-09-30T04:52:30;0.20;;;0.20;;
82000;SDS011;71510;50.558;7.258;2023-09-30T04:54:57;0.25;;;0.25;;
82000;SDS011;71510;50.558;7.258;2023-09-30T04:57:26;0.20;;;0.20;;
82000;SDS011;71510;50.558;7.258;2023-09-30T04:59:54;0.00;;;0.00;;
82000;SDS011;71510;50.558;7.258;2023-09-30T05:02:21;0.10;;;0.10;;
82000;SDS011;71510;50.558;7.258;2023-09-30T05:04:49;0.30;;;0.30;;
82000;SDS011;71510;50.558;7.258;2023-09-30T05:07:16;0.72;;;0.40;;
82000;SDS011;71510;50.558;7.258;2023-09-30T05:09:43;0.05;;;0.05;;
82000;SDS011;71510;50.558;7.258;2023-09-30T05:12:11;0.00;;;0.00;;
82000;SDS011;71510;50.558;7.258;2023-09-30T05:14:38;0.10;;;0.10;;
82000;SDS011;71510;50.558;7.258;2023-09-30T05:17:05;0.17;;;0.17;;
82000;SDS011;71510;50.558;7.258;2023-09-30T05:19:34;0.08;;;0.08;;
82000;SDS011;71510;50.558;7.258;2023-09-30T05:22:03;0.00;;;0.00;;
82000;SDS011;71510;50.558;7.258;2023-09-30T05:24:31;0.08;;;0.08;;
82000;SDS011;71510;50.558;7.258;2023-09-30T05:26:58;5.15;;;1.27;;
82000;SDS011;71510;50.558;7.258;2023-09-30T05:29:26;1.00;;;0.90;;
82000;SDS011;71510;50.558;7.258;2023-09-30T05:31:53;6.03;;;1.92;;
82000;SDS011;71510;50.558;7.258;2023-09-30T05:34:21;0.20;;;0.20;;
82000;SDS011;71510;50.558;7.258;2023-09-30T05:36:48;0.00;;;0.00;;
82000;SDS011;71510;50.558;7.258;2023-09-30T05:39:17;0.00;;;0.00;;
82000;SDS011;71510;50.558;7.258;2023-09-30T05:41:46;0.00;;;0.00;;
82000;SDS011;71510;50.558;7.258;2023-09-30T05:44:13;0.00;;;0.00;;
82000;SDS011;71510;50.558;7.258;2023-09-30T05:46:41;0.10;;;0.10;;
82000;SDS011;71510;50.558;7.258;2023-09-30T05:49:09;0.00;;;0.00;;
82000;SDS011;71510;50.558;7.258;2023-09-30T05:51:39;0.00;;;0.00;;
82000;SDS011;71510;50.558;7.258;2023-09-30T05:54:07;0.10;;;0.10;;
82000;SDS011;71510;50.558;7.258;2023-09-30T05:59:04;0.08;;;0.08;;
82000;SDS011;71510;50.558;7.258;2023-09-30T06:01:32;0.00;;;0.00;;
82000;SDS011;71510;50.558;7.258;2023-09-30T06:04:00;0.00;;;0.00;;
82000;SDS011;71510;50.558;7.258;2023-09-30T06:06:27;0.00;;;0.00;;
82000;SDS011;71510;50.558;7.258;2023-09-30T06:08:59;0.00;;;0.00;;
82000;SDS011;71510;50.558;7.258;2023-09-30T06:11:26;0.00;;;0.00;;
82000;SDS011;71510;50.558;7.258;2023-09-30T06:13:55;0.30;;;0.30;;
82000;SDS011;71510;50.558;7.258;2023-09-30T06:16:22;0.30;;;0.30;;
82000;SDS011;71510;50.558;7.258;2023-09-30T06:18:51;0.00;;;0.00;;
82000;SDS011;71510;50.558;7.258;2023-09-30T06:21:18;0.10;;;0.10;;
82000;SDS011;71510;50.558;7.258;2023-09-30T06:23:47;0.10;;;0.10;;
82000;SDS011;71510;50.558;7.258;2023-09-30T06:26:16;0.00;;;0.00;;
82000;SDS011;71510;50.558;7.258;2023-09-30T06:28:44;0.20;;;0.20;;
82000;SDS011;71510;50.558;7.258;2023-09-30T06:31:11;0.20;;;0.20;;
82000;SDS011;71510;50.558;7.258;2023-09-30T06:33:39;0.72;;;0.72;;
82000;SDS011;71510;50.558;7.258;2023-09-30T06:36:10;0.80;;;0.80;;
82000;SDS011;71510;50.558;7.258;2023-09-30T06:41:04;0.00;;;0.00;;
82000;SDS011;71510;50.558;7.258;2023-09-30T06:43:32;0.30;;;0.30;;
82000;SDS011;71510;50.558;7.258;2023-09-30T06:46:07;0.00;;;0.00;;
82000;SDS011;71510;50.558;7.258;2023-09-30T06:48:38;0.10;;;0.10;;
82000;SDS011;71510;50.558;7.258;2023-09-30T06:51:15;0.15;;;0.15;;
82000;SDS011;71510;50.558;7.258;2023-09-30T06:53:43;0.30;;;0.30;;
82000;SDS011;71510;50.558;7.258;2023-09-30T06:56:12;0.00;;;0.00;;
82000;SDS011;71510;50.558;7.258;2023-09-30T06:58:39;0.85;;;0.85;;
82000;SDS011;71510;50.558;7.258;2023-09-30T07:01:06;0.17;;;0.17;;
82000;SDS011;71510;50.558;7.258;2023-09-30T07:03:34;0.00;;;0.00;;
82000;SDS011;71510;50.558;7.258;2023-09-30T07:06:01;0.10;;;0.10;;
82000;SDS011;71510;50.558;7.258;2023-09-30T07:08:29;0.00;;;0.00;;
82000;SDS011;71510;50.558;7.258;2023-09-30T07:10:56;0.93;;;0.75;;
82000;SDS011;71510;50.558;7.258;2023-09-30T07:13:23;1.17;;;1.07;;
82000;SDS011;71510;50.558;7.258;2023-09-30T07:15:51;0.10;;;0.10;;
82000;SDS011;71510;50.558;7.258;2023-09-30T07:18:18;0.05;;;0.05;;
82000;SDS011;71510;50.558;7.258;2023-09-30T07:20:46;0.00;;;0.00;;
82000;SDS011;71510;50.558;7.258;2023-09-30T07:23:13;0.00;;;0.00;;
82000;SDS011;71510;50.558;7.258;2023-09-30T07:25:40;3.70;;;0.93;;
82000;SDS011;71510;50.558;7.258;2023-09-30T07:28:08;0.03;;;0.03;;
82000;SDS011;71510;50.558;7.258;2023-09-30T07:30:37;0.00;;;0.00;;
82000;SDS011;71510;50.558;7.258;2023-09-30T07:33:06;0.05;;;0.05;;
82000;SDS011;71510;50.558;7.258;2023-09-30T07:35:33;0.05;;;0.05;;
82000;SDS011;71510;50.558;7.258;2023-09-30T07:38:00;0.10;;;0.10;;
82000;SDS011;71510;50.558;7.258;2023-09-30T07:40:28;0.03;;;0.03;;
82000;SDS011;71510;50.558;7.258;2023-09-30T07:42:56;1.27;;;1.22;;
82000;SDS011;71510;50.558;7.258;2023-09-30T07:45:24;0.40;;;0.40;;
82000;SDS011;71510;50.558;7.258;2023-09-30T07:47:51;0.35;;;0.35;;
82000;SDS011;71510;50.558;7.258;2023-09-30T07:50:18;0.70;;;0.70;;
82000;SDS011;71510;50.558;7.258;2023-09-30T07:52:46;0.42;;;0.42;;
82000;SDS011;71510;50.558;7.258;2023-09-30T07:55:13;3.33;;;2.72;;
82000;SDS011;71510;50.558;7.258;2023-09-30T07:57:41;0.65;;;0.65;;
82000;SDS011;71510;50.558;7.258;2023-09-30T08:00:12;0.10;;;0.10;;
82000;SDS011;71510;50.558;7.258;2023-09-30T08:02:43;0.00;;;0.00;;
82000;SDS011;71510;50.558;7.258;2023-09-30T08:05:11;0.55;;;0.55;;
82000;SDS011;71510;50.558;7.258;2023-09-30T08:07:38;1.35;;;0.95;;
82000;SDS011;71510;50.558;7.258;2023-09-30T08:10:05;0.23;;;0.23;;
82000;SDS011;71510;50.558;7.258;2023-09-30T08:12:34;0.10;;;0.10;;
82000;SDS011;71510;50.558;7.258;2023-09-30T08:15:02;0.40;;;0.40;;
82000;SDS011;71510;50.558;7.258;2023-09-30T08:17:29;5.10;;;0.80;;
82000;SDS011;71510;50.558;7.258;2023-09-30T08:19:57;0.23;;;0.23;;
82000;SDS011;71510;50.558;7.258;2023-09-30T08:22:24;11.38;;;2.52;;
82000;SDS011;71510;50.558;7.258;2023-09-30T08:24:53;2.27;;;1.12;;
82000;SDS011;71510;50.558;7.258;2023-09-30T08:27:21;0.00;;;0.00;;
82000;SDS011;71510;50.558;7.258;2023-09-30T08:29:50;0.20;;;0.20;;
82000;SDS011;71510;50.558;7.258;2023-09-30T08:32:17;0.65;;;0.65;;
82000;SDS011;71510;50.558;7.258;2023-09-30T08:34:44;0.37;;;0.37;;
82000;SDS011;71510;50.558;7.258;2023-09-30T08:37:11;0.23;;;0.23;;
82000;SDS011;71510;50.558;7.258;2023-09-30T08:39:39;0.20;;;0.20;;
82000;SDS011;71510;50.558;7.258;2023-09-30T08:42:12;0.10;;;0.10;;
82000;SDS011;71510;50.558;7.258;2023-09-30T08:44:40;0.13;;;0.13;;
82000;SDS011;71510;50.558;7.258;2023-09-30T08:47:07;0.10;;;0.10;;
82000;SDS011;71510;50.558;7.258;2023-09-30T08:49:38;0.72;;;0.72;;
82000;SDS011;71510;50.558;7.258;2023-09-30T08:52:08;0.15;;;0.15;;
82000;SDS011;71510;50.558;7.258;2023-09-30T08:54:36;0.40;;;0.40;;
82000;SDS011;71510;50.558;7.258;2023-09-30T08:57:04;24.32;;;13.95;;
82000;SDS011;71510;50.558;7.258;2023-09-30T08:59:32;25.97;;;13.43;;
82000;SDS011;71510;50.558;7.258;2023-09-30T09:02:00;29.63;;;14.05;;
82000;SDS011;71510;50.558;7.258;2023-09-30T09:04:27;22.90;;;14.38;;
82000;SDS011;71510;50.558;7.258;2023-09-30T09:06:55;24.52;;;12.93;;
82000;SDS011;71510;50.558;7.258;2023-09-30T09:09:22;22.80;;;13.45;;
82000;SDS011;71510;50.558;7.258;2023-09-30T09:11:50;20.23;;;10.60;;
82000;SDS011;71510;50.558;7.258;2023-09-30T09:14:18;22.07;;;12.13;;
82000;SDS011;71510;50.558;7.258;2023-09-30T09:16:53;24.12;;;11.63;;
82000;SDS011;71510;50.558;7.258;2023-09-30T09:19:17;20.05;;;11.90;;
82000;SDS011;71510;50.558;7.258;2023-09-30T09:21:54;21.60;;;12.20;;
82000;SDS011;71510;50.558;7.258;2023-09-30T09:24:32;24.45;;;11.15;;
82000;SDS011;71510;50.558;7.258;2023-09-30T09:27:09;19.20;;;10.70;;
82000;SDS011;71510;50.558;7.258;2023-09-30T09:29:38;23.15;;;10.55;;
82000;SDS011;71510;50.558;7.258;2023-09-30T09:32:09;17.23;;;9.83;;
82000;SDS011;71510;50.558;7.258;2023-09-30T09:34:37;18.37;;;9.13;;
82000;SDS011;71510;50.558;7.258;2023-09-30T09:37:13;22.75;;;9.50;;
82000;SDS011;71510;50.558;7.258;2023-09-30T09:39:54;17.65;;;9.00;;
82000;SDS011;71510;50.558;7.258;2023-09-30T09:42:27;13.83;;;8.43;;
82000;SDS011;71510;50.558;7.258;2023-09-30T09:44:55;15.83;;;7.92;;
82000;SDS011;71510;50.558;7.258;2023-09-30T09:47:23;16.52;;;7.70;;
82000;SDS011;71510;50.558;7.258;2023-09-30T09:49:51;12.93;;;7.40;;
82000;SDS011;71510;50.558;7.258;2023-09-30T09:52:20;17.80;;;7.53;;
82000;SDS011;71510;50.558;7.258;2023-09-30T09:54:48;17.27;;;7.42;;
82000;SDS011;71510;50.558;7.258;2023-09-30T09:57:17;19.60;;;7.67;;
82000;SDS011;71510;50.558;7.258;2023-09-30T09:59:45;14.30;;;7.62;;
82000;SDS011;71510;50.558;7.258;2023-09-30T10:02:15;14.40;;;8.45;;
82000;SDS011;71510;50.558;7.258;2023-09-30T10:04:44;14.25;;;6.37;;
82000;SDS011;71510;50.558;7.258;2023-09-30T10:07:13;13.80;;;6.87;;
82000;SDS011;71510;50.558;7.258;2023-09-30T10:09:41;12.78;;;6.15;;
82000;SDS011;71510;50.558;7.258;2023-09-30T10:12:09;12.00;;;6.12;;
82000;SDS011;71510;50.558;7.258;2023-09-30T10:14:37;12.43;;;6.03;;
82000;SDS011;71510;50.558;7.258;2023-09-30T10:17:04;11.88;;;5.40;;
82000;SDS011;71510;50.558;7.258;2023-09-30T10:19:32;10.58;;;5.28;;
82000;SDS011;71510;50.558;7.258;2023-09-30T10:24:57;14.33;;;6.22;;
82000;SDS011;71510;50.558;7.258;2023-09-30T10:29:58;10.13;;;4.97;;
82000;SDS011;71510;50.558;7.258;2023-09-30T10:35:20;7.83;;;4.90;;
82000;SDS011;71510;50.558;7.258;2023-09-30T10:37:44;9.63;;;4.83;;
82000;SDS011;71510;50.558;7.258;2023-09-30T10:40:27;9.40;;;5.83;;
82000;SDS011;71510;50.558;7.258;2023-09-30T10:42:54;9.33;;;4.67;;
82000;SDS011;71510;50.558;7.258;2023-09-30T10:46:10;13.60;;;4.60;;
82000;SDS011;71510;50.558;7.258;2023-09-30T10:47:54;10.68;;;4.35;;
82000;SDS011;71510;50.558;7.258;2023-09-30T10:50:48;13.38;;;5.30;;
82000;SDS011;71510;50.558;7.258;2023-09-30T10:53:04;8.65;;;4.50;;
82000;SDS011;71510;50.558;7.258;2023-09-30T10:55:33;12.10;;;5.10;;
82000;SDS011;71510;50.558;7.258;2023-09-30T10:58:01;11.22;;;5.15;;
82000;SDS011;71510;50.558;7.258;2023-09-30T11:00:28;9.28;;;4.10;;
82000;SDS011;71510;50.558;7.258;2023-09-30T11:02:56;9.33;;;4.30;;
82000;SDS011;71510;50.558;7.258;2023-09-30T11:05:24;9.33;;;5.00;;
82000;SDS011;71510;50.558;7.258;2023-09-30T11:07:51;9.50;;;4.17;;
82000;SDS011;71510;50.558;7.258;2023-09-30T11:10:19;12.23;;;5.15;;
82000;SDS011;71510;50.558;7.258;2023-09-30T11:12:59;9.63;;;4.50;;
82000;SDS011;71510;50.558;7.258;2023-09-30T11:15:24;11.97;;;3.92;;
82000;SDS011;71510;50.558;7.258;2023-09-30T11:17:53;9.55;;;4.30;;
82000;SDS011;71510;50.558;7.258;2023-09-30T11:20:21;8.50;;;4.53;;
82000;SDS011;71510;50.558;7.258;2023-09-30T11:22:48;8.38;;;4.70;;
82000;SDS011;71510;50.558;7.258;2023-09-30T11:25:17;6.92;;;3.92;;
82000;SDS011;71510;50.558;7.258;2023-09-30T11:27:45;10.90;;;4.37;;
82000;SDS011;71510;50.558;7.258;2023-09-30T11:30:13;8.85;;;4.25;;
82000;SDS011;71510;50.558;7.258;2023-09-30T11:32:41;9.10;;;4.72;;
82000;SDS011;71510;50.558;7.258;2023-09-30T11:35:09;9.43;;;4.40;;
82000;SDS011;71510;50.558;7.258;2023-09-30T11:37:40;12.30;;;3.98;;
82000;SDS011;71510;50.558;7.258;2023-09-30T11:40:10;9.35;;;4.05;;
82000;SDS011;71510;50.558;7.258;2023-09-30T11:42:37;9.45;;;4.17;;
82000;SDS011;71510;50.558;7.258;2023-09-30T11:45:18;9.18;;;4.75;;
82000;SDS011;71510;50.558;7.258;2023-09-30T11:47:33;9.48;;;4.40;;
82000;SDS011;71510;50.558;7.258;2023-09-30T11:50:01;6.60;;;3.83;;
82000;SDS011;71510;50.558;7.258;2023-09-30T11:52:30;10.75;;;3.60;;
82000;SDS011;71510;50.558;7.258;2023-09-30T11:54:58;8.55;;;3.80;;
82000;SDS011;71510;50.558;7.258;2023-09-30T11:57:27;7.97;;;3.60;;
82000;SDS011;71510;50.558;7.258;2023-09-30T11:59:54;12.07;;;4.10;;
82000;SDS011;71510;50.558;7.258;2023-09-30T12:02:23;7.72;;;4.00;;
82000;SDS011;71510;50.558;7.258;2023-09-30T12:04:50;6.40;;;3.83;;
82000;SDS011;71510;50.558;7.258;2023-09-30T12:07:18;7.67;;;3.17;;
82000;SDS011;71510;50.558;7.258;2023-09-30T12:09:46;7.53;;;3.40;;
82000;SDS011;71510;50.558;7.258;2023-09-30T12:12:13;6.42;;;3.00;;
82000;SDS011;71510;50.558;7.258;2023-09-30T12:14:42;9.53;;;3.60;;
82000;SDS011;71510;50.558;7.258;2023-09-30T12:17:09;5.15;;;3.22;;
82000;SDS011;71510;50.558;7.258;2023-09-30T12:19:37;7.00;;;3.25;;
82000;SDS011;71510;50.558;7.258;2023-09-30T12:22:04;5.33;;;3.08;;
82000;SDS011;71510;50.558;7.258;2023-09-30T12:24:32;5.40;;;2.90;;
82000;SDS011;71510;50.558;7.258;2023-09-30T12:26:59;4.25;;;3.10;;
82000;SDS011;71510;50.558;7.258;2023-09-30T12:29:28;6.15;;;3.22;;
82000;SDS011;71510;50.558;7.258;2023-09-30T12:31:55;5.85;;;2.70;;
82000;SDS011;71510;50.558;7.258;2023-09-30T12:34:22;4.72;;;2.12;;
82000;SDS011;71510;50.558;7.258;2023-09-30T12:36:51;3.42;;;2.45;;
82000;SDS011;71510;50.558;7.258;2023-09-30T12:39:19;5.83;;;3.05;;
82000;SDS011;71510;50.558;7.258;2023-09-30T12:41:47;5.55;;;3.00;;
82000;SDS011;71510;50.558;7.258;2023-09-30T12:44:15;4.25;;;2.42;;
82000;SDS011;71510;50.558;7.258;2023-09-30T12:46:44;4.50;;;2.10;;
82000;SDS011;71510;50.558;7.258;2023-09-30T12:49:11;3.42;;;2.30;;
82000;SDS011;71510;50.558;7.258;2023-09-30T12:51:38;4.30;;;2.02;;
82000;SDS011;71510;50.558;7.258;2023-09-30T12:54:06;4.28;;;2.67;;
82000;SDS011;71510;50.558;7.258;2023-09-30T12:56:34;3.98;;;2.42;;
82000;SDS011;71510;50.558;7.258;2023-09-30T12:59:01;4.20;;;2.35;;
82000;SDS011;71510;50.558;7.258;2023-09-30T13:01:29;5.53;;;2.72;;
82000;SDS011;71510;50.558;7.258;2023-09-30T13:03:58;4.80;;;2.80;;
82000;SDS011;71510;50.558;7.258;2023-09-30T13:06:25;4.55;;;2.90;;
82000;SDS011;71510;50.558;7.258;2023-09-30T13:08:52;3.30;;;2.35;;
82000;SDS011;71510;50.558;7.258;2023-09-30T13:11:20;4.47;;;2.67;;
82000;SDS011;71510;50.558;7.258;2023-09-30T13:13:47;7.00;;;2.65;;
82000;SDS011;71510;50.558;7.258;2023-09-30T13:16:14;4.15;;;2.35;;
82000;SDS011;71510;50.558;7.258;2023-09-30T13:18:42;6.37;;;2.52;;
82000;SDS011;71510;50.558;7.258;2023-09-30T13:21:09;2.98;;;1.92;;
82000;SDS011;71510;50.558;7.258;2023-09-30T13:23:38;4.62;;;2.50;;
82000;SDS011;71510;50.558;7.258;2023-09-30T13:26:05;17.30;;;3.22;;
82000;SDS011;71510;50.558;7.258;2023-09-30T13:28:33;4.72;;;2.22;;
82000;SDS011;71510;50.558;7.258;2023-09-30T13:31:01;6.33;;;2.25;;
82000;SDS011;71510;50.558;7.258;2023-09-30T13:33:28;5.33;;;2.00;;
82000;SDS011;71510;50.558;7.258;2023-09-30T13:35:55;5.42;;;2.72;;
82000;SDS011;71510;50.558;7.258;2023-09-30T13:38:23;9.08;;;2.90;;
82000;SDS011;71510;50.558;7.258;2023-09-30T13:40:50;3.67;;;2.30;;
82000;SDS011;71510;50.558;7.258;2023-09-30T13:43:18;4.08;;;2.10;;
82000;SDS011;71510;50.558;7.258;2023-09-30T13:45:45;5.47;;;2.30;;
82000;SDS011;71510;50.558;7.258;2023-09-30T13:48:12;4.75;;;2.20;;
82000;SDS011;71510;50.558;7.258;2023-09-30T13:50:40;3.30;;;2.08;;
82000;SDS011;71510;50.558;7.258;2023-09-30T13:53:08;3.52;;;2.42;;
82000;SDS011;71510;50.558;7.258;2023-09-30T13:55:37;3.98;;;2.33;;
82000;SDS011;71510;50.558;7.258;2023-09-30T13:58:04;3.52;;;2.45;;
82000;SDS011;71510;50.558;7.258;2023-09-30T14:00:31;6.25;;;2.62;;
82000;SDS011;71510;50.558;7.258;2023-09-30T14:02:59;5.17;;;2.10;;
82000;SDS011;71510;50.558;7.258;2023-09-30T14:05:27;5.22;;;2.65;;
82000;SDS011;71510;50.558;7.258;2023-09-30T14:07:54;5.17;;;2.95;;
82000;SDS011;71510;50.558;7.258;2023-09-30T14:10:21;3.98;;;2.30;;
82000;SDS011;71510;50.558;7.258;2023-09-30T14:12:49;2.92;;;2.02;;
82000;SDS011;71510;50.558;7.258;2023-09-30T14:15:17;5.28;;;2.55;;
82000;SDS011;71510;50.558;7.258;2023-09-30T14:17:44;6.62;;;2.58;;
82000;SDS011;71510;50.558;7.258;2023-09-30T14:20:11;3.58;;;2.62;;
82000;SDS011;71510;50.558;7.258;2023-09-30T14:22:39;6.25;;;3.50;;
82000;SDS011;71510;50.558;7.258;2023-09-30T14:25:06;5.00;;;2.50;;
82000;SDS011;71510;50.558;7.258;2023-09-30T14:27:34;3.17;;;2.50;;
82000;SDS011;71510;50.558;7.258;2023-09-30T14:30:01;6.58;;;2.70;;
82000;SDS011;71510;50.558;7.258;2023-09-30T14:32:30;4.65;;;2.45;;
82000;SDS011;71510;50.558;7.258;2023-09-30T14:34:58;4.22;;;2.52;;
82000;SDS011;71510;50.558;7.258;2023-09-30T14:37:25;3.65;;;2.27;;
82000;SDS011;71510;50.558;7.258;2023-09-30T14:39:53;4.15;;;2.25;;
82000;SDS011;71510;50.558;7.258;2023-09-30T14:42:20;5.35;;;2.83;;
82000;SDS011;71510;50.558;7.258;2023-09-30T14:44:48;6.10;;;2.58;;
82000;SDS011;71510;50.558;7.258;2023-09-30T14:47:15;2.87;;;2.15;;
82000;SDS011;71510;50.558;7.258;2023-09-30T14:49:42;4.22;;;2.42;;
82000;SDS011;71510;50.558;7.258;2023-09-30T14:52:10;4.28;;;2.25;;
82000;SDS011;71510;50.558;7.258;2023-09-30T14:54:37;5.55;;;2.70;;
82000;SDS011;71510;50.558;7.258;2023-09-30T14:57:04;4.53;;;2.87;;
82000;SDS011;71510;50.558;7.258;2023-09-30T14:59:32;5.62;;;2.60;;
82000;SDS011;71510;50.558;7.258;2023-09-30T15:02:00;5.35;;;2.77;;
82000;SDS011;71510;50.558;7.258;2023-09-30T15:04:27;5.80;;;2.90;;